KDAN/DAN METAR and TAF weather

Enter ICAO airport designator
Station Type Date Time Source
KDAN METAR 2020/09/25 06:53 UTC NOAA

KDAN 250653Z AUTO 00000KT 6SM -RA BR FEW100 BKN120 15/14 A3009 RMK AO2 RAB0557 SLP180 P0001 T01500139


Station Type Date Time Source
KDAN Decoded METAR 2020/09/25 06:53 UTC NOAA

DANVILLE REGIONAL AIRPORT, VA, United States (KDAN) 36-34N 079-20W 175M
Sep 25, 2020 - 02:53 AM EDT / 2020.09.25 0653 UTC
Wind: Calm:0
Visibility: 6 mile(s):0
Sky conditions: mostly cloudy
Weather: light rain; mist
Precipitation last hour: 0.01 inches
Temperature: 59.0 F (15.0 C)
Dew Point: 57.0 F (13.9 C)
Relative Humidity: 93%
Pressure (altimeter): 30.09 in. Hg (1018 hPa)
ob: KDAN 250653Z AUTO 00000KT 6SM -RA BR FEW100 BKN120 15/14 A3009 RMK AO2 RAB0557 SLP180 P0001 T01500139
cycle: 7

Station Type Date Time Source
KDAN TAF 2020/09/25 06:48 UTC NOAA

TAF KDAN 250545Z 2506/2606 00000KT P6SM OVC120
FM250700 00000KT 5SM -RA BR OVC060
FM251200 00000KT 5SM -RA BR OVC025
FM251400 VRB02KT 3SM -RA OVC025
FM251800 05005KT 3SM -RA OVC006
FM252000 08005KT 4SM -RA OVC006
FM252100 08005KT 5SM BR OVC006
FM260400 VRB02KT 4SM BR OVC003

Example: see airport list